createdAt,value
2023-05-06T00:01:42.388Z,1.57
2023-05-06T00:04:09.975Z,1.40
2023-05-06T00:06:37.653Z,1.40
2023-05-06T00:09:04.920Z,1.40
2023-05-06T00:11:32.169Z,1.50
2023-05-06T00:13:59.317Z,1.43
2023-05-06T00:16:26.616Z,1.47
2023-05-06T00:18:53.837Z,1.50
2023-05-06T00:21:21.324Z,1.50
2023-05-06T00:23:48.763Z,1.70
2023-05-06T00:26:16.663Z,1.70
2023-05-06T00:28:44.581Z,1.40
2023-05-06T00:31:11.761Z,1.60
2023-05-06T00:33:38.998Z,1.40
2023-05-06T00:36:06.301Z,1.50
2023-05-06T00:38:33.487Z,1.53
2023-05-06T00:41:01.007Z,1.50
2023-05-06T00:43:28.451Z,1.40
2023-05-06T00:45:55.885Z,1.53
2023-05-06T00:48:23.178Z,1.50
2023-05-06T00:50:50.509Z,1.30
2023-05-06T00:53:19.707Z,1.60
2023-05-06T00:55:47.435Z,1.40
2023-05-06T00:58:15.558Z,1.37
2023-05-06T01:00:43.051Z,1.60
2023-05-06T01:03:10.421Z,1.67
2023-05-06T01:05:43.944Z,1.50
2023-05-06T01:08:18.255Z,1.70
2023-05-06T01:10:48.316Z,1.60
2023-05-06T01:13:24.860Z,1.40
2023-05-06T01:15:54.707Z,1.60
2023-05-06T01:18:22.824Z,1.40
2023-05-06T01:20:52.271Z,1.50
2023-05-06T01:23:20.235Z,1.60
2023-05-06T01:25:47.536Z,1.53
2023-05-06T01:28:14.921Z,1.57
2023-05-06T01:30:51.446Z,1.63
2023-05-06T01:33:27.687Z,1.50
2023-05-06T01:35:55.486Z,1.47
2023-05-06T01:38:35.140Z,1.60
2023-05-06T01:41:02.673Z,1.80
2023-05-06T01:43:31.067Z,1.70
2023-05-06T01:45:59.514Z,1.70
2023-05-06T01:48:28.882Z,1.60
2023-05-06T01:50:56.407Z,1.70
2023-05-06T01:53:23.577Z,1.53
2023-05-06T01:55:50.833Z,1.60
2023-05-06T01:58:18.081Z,1.60
2023-05-06T02:00:45.241Z,1.63
2023-05-06T02:03:12.913Z,1.60
2023-05-06T02:05:40.160Z,1.70
2023-05-06T02:08:07.334Z,1.70
2023-05-06T02:10:34.501Z,1.77
2023-05-06T02:13:01.837Z,1.70
2023-05-06T02:15:29.064Z,1.50
2023-05-06T02:17:57.244Z,1.40
2023-05-06T02:20:24.584Z,1.47
2023-05-06T02:22:51.752Z,2.17
2023-05-06T02:25:18.950Z,1.40
2023-05-06T02:27:46.107Z,1.70
2023-05-06T02:30:13.423Z,1.50
2023-05-06T02:32:41.886Z,1.40
2023-05-06T02:35:09.883Z,1.70
2023-05-06T02:37:37.451Z,1.67
2023-05-06T02:40:06.441Z,1.33
2023-05-06T02:42:35.772Z,1.60
2023-05-06T02:45:03.019Z,1.70
2023-05-06T02:47:30.498Z,1.60
2023-05-06T02:49:57.747Z,1.53
2023-05-06T02:52:25.182Z,1.57
2023-05-06T02:54:52.527Z,1.70
2023-05-06T02:57:19.733Z,1.63
2023-05-06T02:59:46.870Z,1.90
2023-05-06T03:02:14.055Z,2.00
2023-05-06T03:04:41.735Z,1.50
2023-05-06T03:07:08.958Z,1.60
2023-05-06T03:09:36.176Z,1.60
2023-05-06T03:12:03.367Z,1.60
2023-05-06T03:14:30.561Z,1.60
2023-05-06T03:16:57.821Z,1.60
2023-05-06T03:19:25.067Z,1.50
2023-05-06T03:21:52.240Z,1.57
2023-05-06T03:24:19.448Z,1.73
2023-05-06T03:26:46.642Z,1.50
2023-05-06T03:29:13.809Z,1.70
2023-05-06T03:31:41.115Z,1.63
2023-05-06T03:34:08.419Z,1.70
2023-05-06T03:36:35.745Z,1.70
2023-05-06T03:39:02.915Z,1.50
2023-05-06T03:41:30.260Z,1.50
2023-05-06T03:43:57.447Z,1.60
2023-05-06T03:46:24.637Z,1.50
2023-05-06T03:48:51.863Z,1.70
2023-05-06T03:51:19.242Z,1.60
2023-05-06T03:53:46.475Z,1.40
2023-05-06T03:56:13.947Z,1.50
2023-05-06T03:58:41.209Z,1.37
2023-05-06T04:01:08.541Z,1.60
2023-05-06T04:03:35.758Z,1.40
2023-05-06T04:06:03.044Z,1.53
2023-05-06T04:08:30.540Z,1.40
2023-05-06T04:10:58.155Z,1.50
2023-05-06T04:13:25.442Z,1.60
2023-05-06T04:15:52.785Z,1.70
2023-05-06T04:18:20.062Z,1.43
2023-05-06T04:20:48.383Z,1.80
2023-05-06T04:23:16.036Z,1.50
2023-05-06T04:25:48.706Z,1.50
2023-05-06T04:28:16.916Z,1.50
2023-05-06T04:30:44.728Z,1.47
2023-05-06T04:33:12.426Z,1.73
2023-05-06T04:35:40.049Z,1.67
2023-05-06T04:38:07.249Z,1.63
2023-05-06T04:40:36.548Z,1.67
2023-05-06T04:43:04.657Z,1.70
2023-05-06T04:45:34.408Z,1.50
2023-05-06T04:48:01.812Z,1.73
2023-05-06T04:50:29.077Z,1.70
2023-05-06T04:52:56.262Z,1.40
2023-05-06T04:55:23.511Z,1.37
2023-05-06T04:57:50.826Z,1.73
2023-05-06T05:00:19.201Z,1.60
2023-05-06T05:02:46.889Z,1.50
2023-05-06T05:05:14.793Z,1.60
2023-05-06T05:07:41.996Z,1.40
2023-05-06T05:10:10.369Z,1.50
2023-05-06T05:12:37.689Z,1.50
2023-05-06T05:15:05.091Z,1.83
2023-05-06T05:17:32.367Z,1.60
2023-05-06T05:19:59.632Z,1.80
2023-05-06T05:22:26.805Z,1.50
2023-05-06T05:24:53.970Z,1.50
2023-05-06T05:27:21.102Z,1.70
2023-05-06T05:29:48.583Z,1.87
2023-05-06T05:32:16.424Z,1.50
2023-05-06T05:34:43.592Z,1.60
2023-05-06T05:37:11.385Z,1.70
2023-05-06T05:39:38.579Z,1.67
2023-05-06T05:42:05.926Z,1.57
2023-05-06T05:44:33.410Z,1.80
2023-05-06T05:47:00.621Z,1.50
2023-05-06T05:49:27.810Z,1.60
2023-05-06T05:51:54.971Z,1.90
2023-05-06T05:54:22.129Z,1.70
2023-05-06T05:56:50.471Z,1.90
2023-05-06T05:59:17.636Z,1.70
2023-05-06T06:01:44.978Z,1.73
2023-05-06T06:04:12.243Z,1.60
2023-05-06T06:06:39.527Z,1.83
2023-05-06T06:09:07.274Z,1.60
2023-05-06T06:11:34.426Z,1.70
2023-05-06T06:14:01.726Z,1.67
2023-05-06T06:16:28.996Z,1.57
2023-05-06T06:18:56.194Z,1.70
2023-05-06T06:21:23.414Z,1.60
2023-05-06T06:23:50.638Z,1.60
2023-05-06T06:26:17.794Z,1.57
2023-05-06T06:28:45.074Z,1.60
2023-05-06T06:31:12.336Z,1.53
2023-05-06T06:33:39.501Z,1.60
2023-05-06T06:36:06.821Z,1.70
2023-05-06T06:38:34.007Z,1.80
2023-05-06T06:41:01.167Z,1.77
2023-05-06T06:43:28.408Z,1.70
2023-05-06T06:45:56.370Z,1.60
2023-05-06T06:48:23.678Z,1.70
2023-05-06T06:50:50.982Z,1.70
2023-05-06T06:53:18.167Z,1.53
2023-05-06T06:55:45.810Z,1.90
2023-05-06T06:58:13.122Z,1.60
2023-05-06T07:00:40.451Z,1.60
2023-05-06T07:03:07.797Z,1.93
2023-05-06T07:05:34.967Z,1.70
2023-05-06T07:08:02.224Z,1.67
2023-05-06T07:10:29.467Z,1.57
2023-05-06T07:12:56.755Z,1.87
2023-05-06T07:15:24.400Z,1.67
2023-05-06T07:17:51.595Z,1.77
2023-05-06T07:20:18.894Z,1.50
2023-05-06T07:22:46.064Z,1.50
2023-05-06T07:25:13.438Z,1.90
2023-05-06T07:27:40.917Z,1.80
2023-05-06T07:30:08.520Z,1.77
2023-05-06T07:32:35.927Z,1.43
2023-05-06T07:35:03.297Z,1.73
2023-05-06T07:37:30.598Z,1.50
2023-05-06T07:39:58.300Z,1.70
2023-05-06T07:42:25.598Z,1.70
2023-05-06T07:44:52.808Z,1.73
2023-05-06T07:47:28.137Z,1.77
2023-05-06T07:49:55.996Z,1.57
2023-05-06T07:52:23.609Z,1.50
2023-05-06T07:54:50.828Z,1.60
2023-05-06T07:57:18.181Z,1.70
2023-05-06T07:59:48.047Z,1.70
2023-05-06T08:02:15.548Z,1.50
2023-05-06T08:04:43.206Z,1.80
2023-05-06T08:07:11.097Z,1.63
2023-05-06T08:09:38.415Z,1.67
2023-05-06T08:12:05.838Z,1.50
2023-05-06T08:14:33.100Z,1.50
2023-05-06T08:17:00.414Z,1.50
2023-05-06T08:19:27.753Z,1.53
2023-05-06T08:21:55.099Z,2.00
2023-05-06T08:24:22.290Z,1.70
2023-05-06T08:26:49.542Z,1.63
2023-05-06T08:29:16.841Z,1.50
2023-05-06T08:31:44.361Z,1.50
2023-05-06T08:34:11.619Z,1.60
2023-05-06T08:36:39.083Z,1.70
2023-05-06T08:39:06.318Z,1.60
2023-05-06T08:41:35.461Z,1.50
2023-05-06T08:44:02.795Z,1.60
2023-05-06T08:46:31.114Z,1.53
2023-05-06T08:48:59.013Z,1.60
2023-05-06T08:51:31.742Z,1.40
2023-05-06T08:54:01.504Z,1.70
2023-05-06T08:56:30.894Z,1.50
2023-05-06T08:58:59.026Z,1.50
2023-05-06T09:01:27.811Z,1.60
2023-05-06T09:03:56.087Z,1.57
2023-05-06T09:06:24.239Z,1.60
2023-05-06T09:08:51.597Z,1.50
2023-05-06T09:11:23.248Z,1.60
2023-05-06T09:13:51.051Z,1.77
2023-05-06T09:16:31.063Z,1.70
2023-05-06T09:18:59.555Z,1.70
2023-05-06T09:21:37.178Z,1.60
2023-05-06T09:24:05.374Z,1.60
2023-05-06T09:26:33.492Z,1.87
2023-05-06T09:29:01.175Z,1.53
2023-05-06T09:31:29.418Z,1.40
2023-05-06T09:33:57.710Z,1.70
2023-05-06T09:36:25.736Z,1.47
2023-05-06T09:38:54.005Z,1.70
2023-05-06T09:41:22.843Z,1.80
2023-05-06T09:43:51.087Z,1.50
2023-05-06T09:46:18.492Z,1.60
2023-05-06T09:48:46.802Z,1.70
2023-05-06T09:51:14.200Z,1.60
2023-05-06T09:53:41.623Z,1.50
2023-05-06T09:56:09.386Z,1.60
2023-05-06T09:58:37.174Z,1.90
2023-05-06T10:01:05.787Z,1.63
2023-05-06T10:03:33.547Z,2.10
2023-05-06T10:06:06.022Z,1.50
2023-05-06T10:08:35.171Z,1.70
2023-05-06T10:11:02.567Z,1.47
2023-05-06T10:13:30.538Z,1.80
2023-05-06T10:15:57.957Z,1.40
2023-05-06T10:18:26.719Z,1.63
2023-05-06T10:20:55.327Z,1.80
2023-05-06T10:23:22.477Z,1.50
2023-05-06T10:25:52.661Z,1.80
2023-05-06T10:28:30.380Z,1.40
2023-05-06T10:30:59.616Z,1.70
2023-05-06T10:33:27.249Z,1.77
2023-05-06T10:36:13.077Z,1.60
2023-05-06T10:38:44.865Z,1.60
2023-05-06T10:41:13.220Z,1.60
2023-05-06T10:43:41.590Z,1.57
2023-05-06T10:46:16.412Z,1.50
2023-05-06T10:49:02.584Z,1.60
2023-05-06T10:51:29.840Z,1.60
2023-05-06T10:54:04.200Z,1.50
2023-05-06T10:56:32.352Z,1.50
2023-05-06T10:59:05.975Z,1.40
2023-05-06T11:01:33.175Z,1.50
2023-05-06T11:04:05.271Z,1.60
2023-05-06T11:06:51.812Z,1.50
2023-05-06T11:09:22.875Z,1.37
2023-05-06T11:12:00.929Z,1.53
2023-05-06T11:14:38.243Z,1.80
2023-05-06T11:17:06.736Z,1.67
2023-05-06T11:19:34.856Z,1.60
2023-05-06T11:22:03.730Z,1.60
2023-05-06T11:24:32.268Z,1.80
2023-05-06T11:27:00.462Z,1.60
2023-05-06T11:29:27.872Z,1.60
2023-05-06T11:31:55.162Z,1.40
2023-05-06T11:34:26.112Z,1.60
2023-05-06T11:36:55.864Z,1.60
2023-05-06T11:39:23.095Z,1.60
2023-05-06T11:41:50.687Z,1.80
2023-05-06T11:44:27.975Z,1.67
2023-05-06T11:46:57.511Z,1.55
2023-05-06T11:49:25.857Z,1.67
2023-05-06T11:51:53.282Z,1.52
2023-05-06T11:54:22.816Z,1.60
2023-05-06T11:56:53.941Z,1.60
2023-05-06T11:59:28.712Z,1.90
2023-05-06T12:01:57.442Z,1.60
2023-05-06T12:04:24.693Z,1.70
2023-05-06T12:06:51.963Z,1.60
2023-05-06T12:09:22.106Z,1.60
2023-05-06T12:11:49.789Z,1.50
2023-05-06T12:14:17.010Z,1.60
2023-05-06T12:16:44.304Z,1.73
2023-05-06T12:19:11.622Z,1.65
2023-05-06T12:21:39.299Z,1.75
2023-05-06T12:24:06.843Z,1.60
2023-05-06T12:26:49.943Z,1.45
2023-05-06T12:29:17.801Z,1.55
2023-05-06T12:31:47.255Z,1.50
2023-05-06T12:34:16.263Z,1.60
2023-05-06T12:36:44.193Z,1.60
2023-05-06T12:39:14.535Z,1.40
2023-05-06T12:41:46.012Z,1.58
2023-05-06T12:44:35.222Z,1.40
2023-05-06T12:47:05.604Z,1.50
2023-05-06T12:49:52.076Z,1.50
2023-05-06T12:52:23.778Z,1.60
2023-05-06T12:54:52.651Z,1.60
2023-05-06T12:57:20.407Z,1.42
2023-05-06T12:59:47.777Z,1.75
2023-05-06T13:02:15.228Z,1.50
2023-05-06T13:04:42.559Z,1.25
2023-05-06T13:07:09.757Z,1.40
2023-05-06T13:09:36.917Z,1.50
2023-05-06T13:12:05.045Z,1.40
2023-05-06T13:14:32.234Z,1.60
2023-05-06T13:17:01.094Z,1.48
2023-05-06T13:19:32.818Z,1.40
2023-05-06T13:22:01.382Z,1.70
2023-05-06T13:24:28.984Z,1.50
2023-05-06T13:26:57.329Z,1.60
2023-05-06T13:29:24.956Z,1.50
2023-05-06T13:31:52.402Z,1.38
2023-05-06T13:34:19.688Z,1.60
2023-05-06T13:36:49.270Z,1.70
2023-05-06T13:39:16.550Z,1.50
2023-05-06T13:41:43.889Z,1.55
2023-05-06T13:44:11.063Z,1.50
2023-05-06T13:46:38.393Z,1.60
2023-05-06T13:49:05.790Z,1.60
2023-05-06T13:51:34.563Z,1.40
2023-05-06T13:54:02.104Z,1.48
2023-05-06T13:56:29.308Z,1.55
2023-05-06T13:58:56.563Z,1.45
2023-05-06T14:01:24.267Z,1.40
2023-05-06T14:03:51.511Z,1.60
2023-05-06T14:06:19.087Z,1.42
2023-05-06T14:08:46.846Z,1.60
2023-05-06T14:11:14.180Z,1.42
2023-05-06T14:13:41.335Z,1.70
2023-05-06T14:16:08.642Z,1.80
2023-05-06T14:18:35.920Z,1.65
2023-05-06T14:21:03.669Z,1.60
2023-05-06T14:23:30.961Z,1.58
2023-05-06T14:25:58.186Z,1.90
2023-05-06T14:28:25.384Z,1.50
2023-05-06T14:30:52.635Z,1.60
2023-05-06T14:33:19.855Z,1.50
2023-05-06T14:35:47.466Z,1.57
2023-05-06T14:38:15.190Z,1.47
2023-05-06T14:40:42.348Z,1.57
2023-05-06T14:43:09.544Z,1.70
2023-05-06T14:45:36.775Z,1.40
2023-05-06T14:48:04.260Z,1.90
2023-05-06T14:50:31.494Z,1.70
2023-05-06T14:52:58.732Z,1.83
2023-05-06T14:55:25.974Z,2.00
2023-05-06T14:57:53.152Z,1.80
2023-05-06T15:00:20.592Z,2.03
2023-05-06T15:02:47.931Z,2.00
2023-05-06T15:05:15.522Z,1.80
2023-05-06T15:07:42.787Z,1.90
2023-05-06T15:10:10.153Z,1.80
2023-05-06T15:12:37.672Z,1.90
2023-05-06T15:15:05.664Z,2.10
2023-05-06T15:17:32.944Z,2.00
2023-05-06T15:20:00.557Z,2.00
2023-05-06T15:22:27.818Z,1.97
2023-05-06T15:24:54.971Z,2.00
2023-05-06T15:27:22.158Z,1.90
2023-05-06T15:29:49.496Z,2.10
2023-05-06T15:32:16.711Z,1.90
2023-05-06T15:34:43.926Z,2.00
2023-05-06T15:37:11.264Z,2.17
2023-05-06T15:39:38.582Z,2.03
2023-05-06T15:42:06.237Z,1.90
2023-05-06T15:44:34.063Z,2.00
2023-05-06T15:47:01.273Z,1.70
2023-05-06T15:52:00.611Z,2.00
2023-05-06T15:54:28.507Z,2.20
2023-05-06T15:56:56.456Z,1.75
2023-05-06T15:59:23.970Z,2.00
2023-05-06T16:02:25.252Z,2.10
2023-05-06T16:04:38.875Z,1.70
2023-05-06T16:07:06.217Z,2.00
2023-05-06T16:09:33.374Z,2.00
2023-05-06T16:12:00.610Z,2.10
2023-05-06T16:14:27.825Z,2.00
2023-05-06T16:16:55.114Z,2.00
2023-05-06T16:19:22.285Z,2.10
2023-05-06T16:21:49.508Z,2.28
2023-05-06T16:24:16.718Z,1.90
2023-05-06T16:26:43.901Z,2.10
2023-05-06T16:29:11.278Z,2.05
2023-05-06T16:31:38.618Z,2.00
2023-05-06T16:36:33.363Z,2.03
2023-05-06T16:39:00.598Z,1.98
2023-05-06T16:41:27.805Z,2.97
2023-05-06T16:43:55.107Z,2.35
2023-05-06T16:46:24.270Z,2.20
2023-05-06T16:48:52.159Z,2.28
2023-05-06T16:51:19.672Z,2.10
2023-05-06T16:53:47.216Z,1.90
2023-05-06T16:56:14.449Z,1.88
2023-05-06T16:58:42.788Z,2.10
2023-05-06T17:01:11.247Z,2.10
2023-05-06T17:03:38.672Z,2.00
2023-05-06T17:06:06.055Z,1.85
2023-05-06T17:08:36.339Z,1.98
2023-05-06T17:11:06.733Z,2.00
2023-05-06T17:13:34.235Z,2.10
2023-05-06T17:16:01.489Z,2.10
2023-05-06T17:18:28.692Z,1.90
2023-05-06T17:20:57.152Z,1.90
2023-05-06T17:23:24.962Z,2.13
2023-05-06T17:25:52.331Z,2.15
2023-05-06T17:28:19.502Z,1.95
2023-05-06T17:30:46.897Z,1.95
2023-05-06T17:33:14.191Z,1.88
2023-05-06T17:35:41.349Z,2.10
2023-05-06T17:38:08.875Z,2.00
2023-05-06T17:40:36.070Z,2.30
2023-05-06T17:43:03.284Z,1.90
2023-05-06T17:45:30.826Z,2.20
2023-05-06T17:47:58.042Z,2.20
2023-05-06T17:50:25.314Z,1.90
2023-05-06T17:52:54.195Z,1.97
2023-05-06T17:55:21.965Z,1.80
2023-05-06T17:57:49.552Z,2.00
2023-05-06T18:00:17.352Z,2.20
2023-05-06T18:02:44.846Z,2.10
2023-05-06T18:05:13.512Z,2.20
2023-05-06T18:07:41.080Z,2.03
2023-05-06T18:10:08.615Z,2.40
2023-05-06T18:12:35.873Z,2.10
2023-05-06T18:15:03.180Z,1.90
2023-05-06T18:17:30.643Z,2.07
2023-05-06T18:19:57.872Z,2.10
2023-05-06T18:22:25.070Z,1.80
2023-05-06T18:24:55.235Z,2.00
2023-05-06T18:27:23.080Z,1.80
2023-05-06T18:29:50.362Z,1.93
2023-05-06T18:32:18.193Z,2.20
2023-05-06T18:34:45.408Z,2.30
2023-05-06T18:37:12.677Z,2.10
2023-05-06T18:39:43.259Z,2.00
2023-05-06T18:42:10.553Z,1.87
2023-05-06T18:44:38.063Z,2.03
2023-05-06T18:47:05.337Z,2.10
2023-05-06T18:49:32.561Z,2.23
2023-05-06T18:51:59.728Z,2.57
2023-05-06T18:54:26.916Z,2.10
2023-05-06T18:56:54.823Z,1.87
2023-05-06T18:59:22.254Z,2.10
2023-05-06T19:01:49.446Z,1.73
2023-05-06T19:04:16.658Z,2.07
2023-05-06T19:06:43.827Z,1.90
2023-05-06T19:09:11.431Z,1.93
2023-05-06T19:11:38.830Z,2.07
2023-05-06T19:14:06.017Z,2.00
2023-05-06T19:16:33.287Z,2.07
2023-05-06T19:19:02.665Z,2.00
2023-05-06T19:21:29.939Z,1.97
2023-05-06T19:23:59.775Z,1.90
2023-05-06T19:26:27.428Z,2.30
2023-05-06T19:28:54.671Z,2.20
2023-05-06T19:31:21.912Z,2.33
2023-05-06T19:33:49.244Z,2.00
2023-05-06T19:36:16.843Z,2.13
2023-05-06T19:38:44.090Z,2.03
2023-05-06T19:41:11.269Z,2.10
2023-05-06T19:43:44.928Z,2.10
2023-05-06T19:46:12.625Z,2.20
2023-05-06T19:48:39.912Z,2.07
2023-05-06T19:51:07.150Z,2.20
2023-05-06T19:53:34.653Z,2.10
2023-05-06T19:56:11.878Z,1.90
2023-05-06T19:58:39.398Z,2.00
2023-05-06T20:01:06.601Z,2.30
2023-05-06T20:03:34.271Z,2.00
2023-05-06T20:06:01.504Z,2.20
2023-05-06T20:08:28.734Z,2.30
2023-05-06T20:10:55.994Z,2.30
2023-05-06T20:13:23.351Z,1.87
2023-05-06T20:15:50.998Z,2.17
2023-05-06T20:18:18.316Z,2.10
2023-05-06T20:20:47.133Z,2.30
2023-05-06T20:23:14.343Z,2.10
2023-05-06T20:25:41.635Z,2.20
2023-05-06T20:28:08.874Z,2.00
2023-05-06T20:30:36.231Z,2.23
2023-05-06T20:33:03.635Z,2.00
2023-05-06T20:35:30.877Z,2.20
2023-05-06T20:37:58.078Z,2.13
2023-05-06T20:40:25.311Z,2.13
2023-05-06T20:42:52.506Z,2.00
2023-05-06T20:45:19.709Z,2.20
2023-05-06T20:47:46.914Z,2.10
2023-05-06T20:50:17.202Z,2.43
2023-05-06T20:52:45.924Z,2.63
2023-05-06T20:55:14.784Z,2.67
2023-05-06T20:57:45.495Z,2.63
2023-05-06T21:00:12.951Z,2.70
2023-05-06T21:02:42.000Z,2.67
2023-05-06T21:05:10.047Z,2.77
2023-05-06T21:07:37.544Z,2.80
2023-05-06T21:10:06.146Z,2.80
2023-05-06T21:12:33.778Z,2.77
2023-05-06T21:15:01.268Z,3.20
2023-05-06T21:17:29.264Z,2.97
2023-05-06T21:19:56.661Z,2.90
2023-05-06T21:22:24.497Z,2.97
2023-05-06T21:24:52.155Z,2.60
2023-05-06T21:27:19.352Z,2.77
2023-05-06T21:29:46.660Z,2.53
2023-05-06T21:32:13.900Z,2.80
2023-05-06T21:34:41.100Z,2.53
2023-05-06T21:37:08.321Z,2.67
2023-05-06T21:39:36.039Z,2.93
2023-05-06T21:42:03.236Z,2.97
2023-05-06T21:44:30.518Z,3.00
2023-05-06T21:46:59.870Z,2.80
2023-05-06T21:49:27.082Z,2.80
2023-05-06T21:51:54.303Z,3.00
2023-05-06T21:54:21.636Z,3.20
2023-05-06T21:56:48.852Z,3.60
2023-05-06T21:59:15.984Z,3.50
2023-05-06T22:01:43.166Z,3.30
2023-05-06T22:04:13.074Z,2.83
2023-05-06T22:06:41.053Z,3.13
2023-05-06T22:09:11.354Z,3.20
2023-05-06T22:11:38.849Z,3.20
2023-05-06T22:14:06.756Z,3.03
2023-05-06T22:16:35.596Z,2.90
2023-05-06T22:19:04.055Z,2.90
2023-05-06T22:21:32.631Z,3.17
2023-05-06T22:24:00.038Z,3.07
2023-05-06T22:26:30.293Z,3.20
2023-05-06T22:28:57.578Z,3.40
2023-05-06T22:31:25.186Z,2.90
2023-05-06T22:33:55.593Z,3.10
2023-05-06T22:36:22.934Z,3.30
2023-05-06T22:38:50.171Z,3.20
2023-05-06T22:41:18.344Z,3.07
2023-05-06T22:43:45.531Z,3.00
2023-05-06T22:46:12.841Z,3.10
2023-05-06T22:48:40.592Z,3.23
2023-05-06T22:51:07.830Z,3.07
2023-05-06T22:53:35.033Z,3.13
2023-05-06T22:56:02.277Z,2.83
2023-05-06T22:58:29.716Z,2.53
2023-05-06T23:00:57.044Z,2.80
2023-05-06T23:03:24.337Z,2.73
2023-05-06T23:05:52.266Z,2.80
2023-05-06T23:08:19.468Z,2.60
2023-05-06T23:10:46.934Z,2.70
2023-05-06T23:13:14.154Z,3.00
2023-05-06T23:15:41.467Z,2.40
2023-05-06T23:18:08.719Z,2.43
2023-05-06T23:20:35.952Z,2.40
2023-05-06T23:23:03.605Z,2.30
2023-05-06T23:25:30.819Z,2.30
2023-05-06T23:27:58.065Z,2.47
2023-05-06T23:30:25.391Z,2.17
2023-05-06T23:32:52.594Z,2.30
2023-05-06T23:35:19.836Z,2.53
2023-05-06T23:37:47.082Z,2.33
2023-05-06T23:40:14.519Z,2.37
2023-05-06T23:42:41.754Z,2.30
2023-05-06T23:45:09.500Z,2.10
2023-05-06T23:47:36.927Z,2.00
2023-05-06T23:50:04.272Z,2.10
2023-05-06T23:52:31.989Z,1.90
2023-05-06T23:54:59.143Z,2.10
2023-05-06T23:57:26.294Z,2.00
2023-05-06T23:59:53.493Z,2.20
